Relevés horaires Antwerpen / Deurne (Belgique)


Relevés horaires à Antwerpen / Deurne - Mardi 23 Mai 2017
Heure UTC1 Température [°C] Vent [km/h] Hum. [%] Pres.4 [hPa] Visi. [Km] Nébu. [octa] Préc.5 [mm] Cond.
2m. Res. Ros. Dir.2 Vit. Moy. Raf.3
23:00 13.2 13.2 8.7 S 1.9 1.9 3.7 74 1024.1(0.6/3h) 45 6/8 -- --
22:00 13.4 13.4 8.1 SE 1.9 1.9 1.9 70 1024.1(1.0/3h) 45 0/8 -- --
21:00 15.6 15.6 7.8 NNO 0.0 5.6 11.1 60 1023.9(1.1/3h) 50 6/8 -- --
20:00 17.3 17.3 8.0 NNO 3.7 5.6 7.4 54 1023.5(0.9/3h) 50 5/8 -- --
19:00 17.4 17.4 8.0 N 3.7 5.6 11.1 54 1023.1(0.9/3h) 50 6/8 -- --
18:00 18.5 18.5 8.6 NO 5.6 13.0 20.4 52 1022.8(0.9/3h) 45 6/8 0/12h
--
17:00 19.2 19.2 7.8 NNO 7.4 11.1 16.7 48 1022.6(1.0/3h) 30 6/8 -- --
16:00 19.8 19.8 10.5 NO 9.3 11.1 16.7 55 1022.3(0.9/3h) 30 6/8 -- --
15:00 20.5 20.5 9.1 NNO 9.3 13.0 20.4 48 1021.9(1.0/3h) 30 6/8 -- --
14:00 20.5 20.5 10.1 NNO 11.1 11.1 18.5 51 1021.6(0.9/3h) 30 6/8 -- --
13:00 19.7 19.7 10.7 ONO 9.3 13.0 20.4 56 1021.4(1.4/3h) 30 7/8 -- --
12:00 19.5 19.5 11.8 ONO 11.1 13.0 18.5 61 1020.9(2.0/3h) 30 7/8 0/6h
--
11:00 18.3 18.3 11.3 ONO 11.1 13.0 18.5 64 1020.7(2.5/3h) 30 7/8 -- --
10:00 18.6 18.6 11.5 ONO 11.1 13.0 18.5 63 1019.9(2.3/3h) 30 7/8 -- --
09:00 18.3 18.3 12.4 O 9.3 11.1 14.8 68 1018.8(1.8/3h) 30 7/8 -- --
08:00 17.9 17.9 11.8 O 7.4 9.3 13.0 67 1018.2(2.1/3h) 30 7/8 -- --
07:00 17.0 17.0 10.8 O 7.4 9.3 13.0 67 1017.6(1.8/3h) 30 7/8 -- --
06:00 16.7 16.7 10.3 O 7.4 9.3 13.0 66 1017(1.4/3h) 30 6/8 0/12h
--
05:00 16.3 16.3 11.0 O 5.6 5.6 9.3 71 1016.1(0.6/3h) 30 6/8 -- --
04:00 16.1 16.1 10.8 OSO 5.6 5.6 7.4 71 1015.8(0.5/3h) 35 0/8 -- --
03:00 15.3 15.3 10.4 SSO 1.9 3.7 5.6 73 1015.6(0.3/3h) 45 0/8 -- --
02:00 17.0 17.0 10.0 SO 3.7 3.7 5.6 63 1015.5(-0.2/3h) 40 0/8 -- --
01:00 14.5 14.5 9.7 NNO 0.0 3.7 3.7 73 1015.3(-0.7/3h) 45 0/8 -- --
00:00 18.2 18.2 10.4 SO 3.7 5.6 7.4 60 1015.2(-0.8/3h) 45 0/8 0/6h
0/24h
--

1 Coordinated Universal Time. Actuellement il est 12:00 locale et 11:00 UTC.

2 Le vent souffle depuis la direction indiquée vers la direction oposée.

3 Les rafales max. sont disponible 40 min après l'heure du relevé.

4 Pour les stations d'altitude (plus de 600m) le géopotentiel du niveau le plus proche de la pression obligatoire est indiqué.

5 Les stations disposant d'un diffuseur peuvent indiquer "trace". Cela signifie que des précipitations ont touchés le sol mais que la quantité est inférieure à 0.1 mm.

Récapitulatif de la journée
Température [°C] Vent [km/h] Ensoleillement4 [h] Precipitations totale5 [mm] Pression [Hpa]
Min1 Max.2 Moy.3 Max. Min Max.
13.0 21.1 8.3 20.4 0 h 0 min 0 1015.2 1024.1

1 Température minimale relevée entre 18:00 UTC la veille et 18:00 UTC le jour donné.

2 Température maximale relevée entre 06:00 UTC le jour donné et 06:00 UTC le lendemain.

3 Vent moyen de la journée basé sur les relevés horaires.

4 Ensoleillement en heures relevé entre 06:00 UTC la veille et 06:00 UTC le jour donné.

5 Précipitations totales tombées entre 06:00 UTC la jour donné et 06:00 UTC le lendemain.

Graphiques horaires